sensor_id;sensor_type;location;lat;lon;timestamp;pressure;altitude;pressure_sealevel;temperature;humidity
11971;BME280;6045;42.682;23.294;2023-11-18T00:01:24;93964.34;;;7.25;88.35
11971;BME280;6045;42.682;23.294;2023-11-18T00:03:54;93958.44;;;7.23;86.34
11971;BME280;6045;42.682;23.294;2023-11-18T00:06:21;93962.84;;;7.29;87.56
11971;BME280;6045;42.682;23.294;2023-11-18T00:08:48;93960.16;;;7.17;86.44
11971;BME280;6045;42.682;23.294;2023-11-18T00:11:15;93959.97;;;7.01;84.89
11971;BME280;6045;42.682;23.294;2023-11-18T00:13:42;93952.16;;;6.87;85.57
11971;BME280;6045;42.682;23.294;2023-11-18T00:16:09;93955.69;;;6.81;85.59
11971;BME280;6045;42.682;23.294;2023-11-18T00:18:38;93987.41;;;6.76;85.98
11971;BME280;6045;42.682;23.294;2023-11-18T00:21:06;93984.19;;;6.74;86.02
11971;BME280;6045;42.682;23.294;2023-11-18T00:23:34;93991.72;;;6.77;86.49
11971;BME280;6045;42.682;23.294;2023-11-18T00:26:00;93981.28;;;6.76;86.74
11971;BME280;6045;42.682;23.294;2023-11-18T00:28:28;93965.34;;;6.76;87.23
11971;BME280;6045;42.682;23.294;2023-11-18T00:30:55;93948.16;;;6.78;86.97
11971;BME280;6045;42.682;23.294;2023-11-18T00:33:21;93948.63;;;6.75;86.09
11971;BME280;6045;42.682;23.294;2023-11-18T00:35:48;93963.25;;;6.66;85.70
11971;BME280;6045;42.682;23.294;2023-11-18T00:38:17;93945.69;;;6.65;87.16
11971;BME280;6045;42.682;23.294;2023-11-18T00:40:44;93954.09;;;6.62;86.61
11971;BME280;6045;42.682;23.294;2023-11-18T00:43:10;93960.44;;;6.61;86.91
11971;BME280;6045;42.682;23.294;2023-11-18T00:45:37;93959.72;;;6.54;86.49
11971;BME280;6045;42.682;23.294;2023-11-18T00:48:06;93956.47;;;6.52;85.85
11971;BME280;6045;42.682;23.294;2023-11-18T00:50:33;93954.53;;;6.41;86.74
11971;BME280;6045;42.682;23.294;2023-11-18T00:53:00;93958.50;;;6.32;86.67
11971;BME280;6045;42.682;23.294;2023-11-18T00:55:28;93959.91;;;6.35;87.68
11971;BME280;6045;42.682;23.294;2023-11-18T00:57:55;93957.09;;;6.30;86.73
11971;BME280;6045;42.682;23.294;2023-11-18T01:00:22;93960.00;;;6.28;86.62
11971;BME280;6045;42.682;23.294;2023-11-18T01:02:49;93967.41;;;6.19;86.75
11971;BME280;6045;42.682;23.294;2023-11-18T01:05:16;93967.63;;;6.18;87.60
11971;BME280;6045;42.682;23.294;2023-11-18T01:07:43;93971.97;;;6.12;87.27
11971;BME280;6045;42.682;23.294;2023-11-18T01:10:10;93976.47;;;6.12;88.12
11971;BME280;6045;42.682;23.294;2023-11-18T01:12:40;93974.41;;;6.14;88.49
11971;BME280;6045;42.682;23.294;2023-11-18T01:15:08;93977.91;;;6.08;87.56
11971;BME280;6045;42.682;23.294;2023-11-18T01:17:36;93979.13;;;6.12;88.40
11971;BME280;6045;42.682;23.294;2023-11-18T01:20:03;93984.72;;;6.22;89.00
11971;BME280;6045;42.682;23.294;2023-11-18T01:22:35;94000.06;;;6.20;87.72
11971;BME280;6045;42.682;23.294;2023-11-18T01:25:02;93998.88;;;6.16;88.17
11971;BME280;6045;42.682;23.294;2023-11-18T01:27:29;94005.91;;;6.04;87.67
11971;BME280;6045;42.682;23.294;2023-11-18T01:29:57;93988.34;;;6.09;88.28
11971;BME280;6045;42.682;23.294;2023-11-18T01:32:25;93976.41;;;6.18;88.20
11971;BME280;6045;42.682;23.294;2023-11-18T01:34:51;93989.94;;;6.10;87.67
11971;BME280;6045;42.682;23.294;2023-11-18T01:37:19;93996.97;;;6.23;88.05
11971;BME280;6045;42.682;23.294;2023-11-18T01:39:47;93993.16;;;6.19;87.09
11971;BME280;6045;42.682;23.294;2023-11-18T01:42:14;93988.34;;;6.09;87.03
11971;BME280;6045;42.682;23.294;2023-11-18T01:44:41;93982.81;;;6.11;88.17
11971;BME280;6045;42.682;23.294;2023-11-18T01:47:09;93990.25;;;5.96;86.44
11971;BME280;6045;42.682;23.294;2023-11-18T01:49:38;93983.47;;;6.06;87.18
11971;BME280;6045;42.682;23.294;2023-11-18T01:52:05;93995.47;;;6.09;87.46
11971;BME280;6045;42.682;23.294;2023-11-18T01:54:33;93994.06;;;6.06;86.82
11971;BME280;6045;42.682;23.294;2023-11-18T01:57:01;93993.25;;;6.06;87.36
11971;BME280;6045;42.682;23.294;2023-11-18T01:59:31;93995.41;;;6.15;86.79
11971;BME280;6045;42.682;23.294;2023-11-18T02:01:59;93992.81;;;6.09;85.76
11971;BME280;6045;42.682;23.294;2023-11-18T02:04:29;94003.19;;;6.10;85.72
11971;BME280;6045;42.682;23.294;2023-11-18T02:06:56;93992.44;;;6.05;85.40
11971;BME280;6045;42.682;23.294;2023-11-18T02:09:23;93989.50;;;5.89;83.97
11971;BME280;6045;42.682;23.294;2023-11-18T02:14:42;93991.22;;;5.77;84.76
11971;BME280;6045;42.682;23.294;2023-11-18T02:17:13;93997.97;;;5.73;84.70
11971;BME280;6045;42.682;23.294;2023-11-18T02:19:42;93997.97;;;5.73;83.81
11971;BME280;6045;42.682;23.294;2023-11-18T02:22:10;94006.84;;;5.60;83.13
11971;BME280;6045;42.682;23.294;2023-11-18T02:24:37;94007.28;;;5.57;83.22
11971;BME280;6045;42.682;23.294;2023-11-18T02:27:07;93993.38;;;5.62;83.77
11971;BME280;6045;42.682;23.294;2023-11-18T02:29:37;93996.03;;;5.62;84.63
11971;BME280;6045;42.682;23.294;2023-11-18T02:32:11;93992.78;;;5.60;83.29
11971;BME280;6045;42.682;23.294;2023-11-18T02:34:45;94008.75;;;5.46;82.56
11971;BME280;6045;42.682;23.294;2023-11-18T02:37:17;93988.00;;;5.43;83.03
11971;BME280;6045;42.682;23.294;2023-11-18T02:39:45;93989.72;;;5.56;83.45
11971;BME280;6045;42.682;23.294;2023-11-18T02:42:18;94005.25;;;5.52;82.24
11971;BME280;6045;42.682;23.294;2023-11-18T02:44:48;94013.03;;;5.47;82.87
11971;BME280;6045;42.682;23.294;2023-11-18T02:47:16;94006.44;;;5.57;83.86
11971;BME280;6045;42.682;23.294;2023-11-18T02:49:43;94017.44;;;5.60;83.79
11971;BME280;6045;42.682;23.294;2023-11-18T02:52:10;94015.16;;;5.64;82.67
11971;BME280;6045;42.682;23.294;2023-11-18T02:54:37;94018.97;;;5.43;80.80
11971;BME280;6045;42.682;23.294;2023-11-18T02:57:04;94018.97;;;5.43;81.14
11971;BME280;6045;42.682;23.294;2023-11-18T02:59:35;94019.69;;;5.57;83.08
11971;BME280;6045;42.682;23.294;2023-11-18T03:02:02;94020.75;;;5.56;81.74
11971;BME280;6045;42.682;23.294;2023-11-18T03:04:28;94014.81;;;5.60;81.71
11971;BME280;6045;42.682;23.294;2023-11-18T03:06:55;94023.72;;;5.66;81.69
11971;BME280;6045;42.682;23.294;2023-11-18T03:09:22;94009.09;;;5.57;81.14
11971;BME280;6045;42.682;23.294;2023-11-18T03:11:53;94020.81;;;5.42;80.87
11971;BME280;6045;42.682;23.294;2023-11-18T03:14:20;94033.47;;;5.40;82.35
11971;BME280;6045;42.682;23.294;2023-11-18T03:16:48;94025.19;;;5.24;80.69
11971;BME280;6045;42.682;23.294;2023-11-18T03:19:15;94048.66;;;5.14;80.70
11971;BME280;6045;42.682;23.294;2023-11-18T03:21:42;94052.63;;;4.98;81.59
11971;BME280;6045;42.682;23.294;2023-11-18T03:24:09;94057.13;;;4.91;81.56
11971;BME280;6045;42.682;23.294;2023-11-18T03:26:35;94058.16;;;4.83;81.11
11971;BME280;6045;42.682;23.294;2023-11-18T03:29:02;94052.28;;;4.75;81.55
11971;BME280;6045;42.682;23.294;2023-11-18T03:31:29;94050.47;;;4.62;81.89
11971;BME280;6045;42.682;23.294;2023-11-18T03:33:57;94037.69;;;4.53;82.28
11971;BME280;6045;42.682;23.294;2023-11-18T03:36:24;94057.25;;;4.32;81.66
11971;BME280;6045;42.682;23.294;2023-11-18T03:38:51;94058.47;;;4.36;83.16
11971;BME280;6045;42.682;23.294;2023-11-18T03:41:18;94050.16;;;4.33;82.40
11971;BME280;6045;42.682;23.294;2023-11-18T03:43:45;94058.09;;;4.33;82.43
11971;BME280;6045;42.682;23.294;2023-11-18T03:46:13;94057.69;;;4.36;82.11
11971;BME280;6045;42.682;23.294;2023-11-18T03:48:41;94053.19;;;4.30;81.88
11971;BME280;6045;42.682;23.294;2023-11-18T03:51:11;94051.59;;;4.15;81.55
11971;BME280;6045;42.682;23.294;2023-11-18T03:53:37;94042.25;;;4.06;81.51
11971;BME280;6045;42.682;23.294;2023-11-18T03:56:05;94060.31;;;4.03;81.70
11971;BME280;6045;42.682;23.294;2023-11-18T03:58:32;94036.97;;;4.00;81.74
11971;BME280;6045;42.682;23.294;2023-11-18T04:00:59;94035.72;;;4.09;82.32
11971;BME280;6045;42.682;23.294;2023-11-18T04:03:26;94053.63;;;4.00;82.30
11971;BME280;6045;42.682;23.294;2023-11-18T04:05:53;94055.84;;;4.03;81.76
11971;BME280;6045;42.682;23.294;2023-11-18T04:08:21;94072.13;;;4.00;81.29
11971;BME280;6045;42.682;23.294;2023-11-18T04:10:48;94068.91;;;4.05;81.71
11971;BME280;6045;42.682;23.294;2023-11-18T04:13:15;94074.16;;;3.98;80.32
11971;BME280;6045;42.682;23.294;2023-11-18T04:15:42;94069.28;;;3.95;81.02
11971;BME280;6045;42.682;23.294;2023-11-18T04:18:12;94069.06;;;4.03;81.24
11971;BME280;6045;42.682;23.294;2023-11-18T04:20:39;94077.22;;;4.02;80.88
11971;BME280;6045;42.682;23.294;2023-11-18T04:23:05;94089.41;;;4.16;82.73
11971;BME280;6045;42.682;23.294;2023-11-18T04:25:34;94089.59;;;4.14;81.10
11971;BME280;6045;42.682;23.294;2023-11-18T04:28:01;94079.03;;;4.01;79.82
11971;BME280;6045;42.682;23.294;2023-11-18T04:30:27;94075.78;;;4.12;81.35
11971;BME280;6045;42.682;23.294;2023-11-18T04:32:54;94080.25;;;4.05;79.62
11971;BME280;6045;42.682;23.294;2023-11-18T04:35:21;94073.56;;;4.09;80.30
11971;BME280;6045;42.682;23.294;2023-11-18T04:37:49;94086.75;;;4.03;79.38
11971;BME280;6045;42.682;23.294;2023-11-18T04:40:16;94087.38;;;3.98;79.31
11971;BME280;6045;42.682;23.294;2023-11-18T04:42:44;94084.94;;;3.97;79.93
11971;BME280;6045;42.682;23.294;2023-11-18T04:45:12;94088.19;;;3.99;80.08
11971;BME280;6045;42.682;23.294;2023-11-18T04:47:40;94082.09;;;3.98;80.26
11971;BME280;6045;42.682;23.294;2023-11-18T04:50:09;94086.16;;;3.88;79.43
11971;BME280;6045;42.682;23.294;2023-11-18T04:52:36;94111.38;;;3.84;79.68
11971;BME280;6045;42.682;23.294;2023-11-18T04:55:04;94111.16;;;3.85;79.86
11971;BME280;6045;42.682;23.294;2023-11-18T04:57:32;94110.13;;;3.86;80.42
11971;BME280;6045;42.682;23.294;2023-11-18T04:59:59;94109.56;;;3.91;80.26
11971;BME280;6045;42.682;23.294;2023-11-18T05:02:35;94092.47;;;4.26;88.03
11971;BME280;6045;42.682;23.294;2023-11-18T05:05:02;94092.69;;;4.11;80.05
11971;BME280;6045;42.682;23.294;2023-11-18T05:07:30;94091.47;;;4.14;80.13
11971;BME280;6045;42.682;23.294;2023-11-18T05:09:57;94075.41;;;4.02;79.80
11971;BME280;6045;42.682;23.294;2023-11-18T05:12:24;94069.47;;;4.00;79.44
11971;BME280;6045;42.682;23.294;2023-11-18T05:14:51;94049.75;;;3.96;79.58
11971;BME280;6045;42.682;23.294;2023-11-18T05:17:19;94072.72;;;3.96;79.31
11971;BME280;6045;42.682;23.294;2023-11-18T05:19:46;94064.78;;;3.96;79.92
11971;BME280;6045;42.682;23.294;2023-11-18T05:22:13;94068.47;;;3.88;79.32
11971;BME280;6045;42.682;23.294;2023-11-18T05:24:41;94066.22;;;3.85;79.51
11971;BME280;6045;42.682;23.294;2023-11-18T05:27:07;94069.88;;;3.84;79.66
11971;BME280;6045;42.682;23.294;2023-11-18T05:29:34;94070.09;;;3.96;80.00
11971;BME280;6045;42.682;23.294;2023-11-18T05:32:01;94066.66;;;3.95;79.28
11971;BME280;6045;42.682;23.294;2023-11-18T05:34:29;94060.13;;;4.04;79.60
11971;BME280;6045;42.682;23.294;2023-11-18T05:36:56;94069.91;;;4.04;79.32
11971;BME280;6045;42.682;23.294;2023-11-18T05:39:24;94062.97;;;3.96;78.37
11971;BME280;6045;42.682;23.294;2023-11-18T05:41:53;94051.78;;;4.01;80.97
11971;BME280;6045;42.682;23.294;2023-11-18T05:44:21;94056.47;;;4.12;80.77
11971;BME280;6045;42.682;23.294;2023-11-18T05:46:56;94060.72;;;4.33;81.71
11971;BME280;6045;42.682;23.294;2023-11-18T05:49:22;94054.41;;;4.34;80.08
11971;BME280;6045;42.682;23.294;2023-11-18T05:51:51;94073.09;;;4.45;80.52
11971;BME280;6045;42.682;23.294;2023-11-18T05:54:18;94075.78;;;4.26;78.38
11971;BME280;6045;42.682;23.294;2023-11-18T05:56:45;94076.00;;;4.31;79.32
11971;BME280;6045;42.682;23.294;2023-11-18T05:59:12;94082.88;;;4.51;82.71
11971;BME280;6045;42.682;23.294;2023-11-18T06:01:40;94080.84;;;4.53;80.09
11971;BME280;6045;42.682;23.294;2023-11-18T06:04:07;94083.28;;;4.61;79.01
11971;BME280;6045;42.682;23.294;2023-11-18T06:06:35;94089.56;;;4.60;79.07
11971;BME280;6045;42.682;23.294;2023-11-18T06:09:04;94080.44;;;4.50;77.35
11971;BME280;6045;42.682;23.294;2023-11-18T06:11:34;94095.91;;;4.53;78.84
11971;BME280;6045;42.682;23.294;2023-11-18T06:14:02;94105.06;;;4.44;77.42
11971;BME280;6045;42.682;23.294;2023-11-18T06:16:29;94106.69;;;4.38;79.51
11971;BME280;6045;42.682;23.294;2023-11-18T06:18:57;94098.78;;;4.45;80.28
11971;BME280;6045;42.682;23.294;2023-11-18T06:21:26;94093.47;;;4.25;78.99
11971;BME280;6045;42.682;23.294;2023-11-18T06:23:56;94088.78;;;4.07;80.17
11971;BME280;6045;42.682;23.294;2023-11-18T06:26:24;94098.34;;;4.15;80.07
11971;BME280;6045;42.682;23.294;2023-11-18T06:28:55;94095.13;;;4.33;80.95
11971;BME280;6045;42.682;23.294;2023-11-18T06:31:22;94098.34;;;4.41;81.95
11971;BME280;6045;42.682;23.294;2023-11-18T06:33:50;94086.56;;;4.37;78.82
11971;BME280;6045;42.682;23.294;2023-11-18T06:36:18;94095.50;;;4.49;77.68
11971;BME280;6045;42.682;23.294;2023-11-18T06:38:45;94090.19;;;4.56;80.66
11971;BME280;6045;42.682;23.294;2023-11-18T06:41:12;94085.31;;;4.66;78.75
11971;BME280;6045;42.682;23.294;2023-11-18T06:43:44;94085.50;;;4.64;78.24
11971;BME280;6045;42.682;23.294;2023-11-18T06:46:27;94093.81;;;4.74;78.54
11971;BME280;6045;42.682;23.294;2023-11-18T06:48:57;94099.06;;;4.94;77.97
11971;BME280;6045;42.682;23.294;2023-11-18T06:51:25;94099.88;;;5.01;74.75
11971;BME280;6045;42.682;23.294;2023-11-18T06:53:53;94099.47;;;4.98;73.82
11971;BME280;6045;42.682;23.294;2023-11-18T06:56:20;94092.06;;;5.19;80.19
11971;BME280;6045;42.682;23.294;2023-11-18T06:58:49;94099.59;;;5.22;73.73
11971;BME280;6045;42.682;23.294;2023-11-18T07:01:16;94089.78;;;5.29;75.53
11971;BME280;6045;42.682;23.294;2023-11-18T07:03:44;94099.28;;;4.99;74.56
11971;BME280;6045;42.682;23.294;2023-11-18T07:06:11;94101.47;;;5.02;74.76
11971;BME280;6045;42.682;23.294;2023-11-18T07:08:39;94096.28;;;5.33;83.07
11971;BME280;6045;42.682;23.294;2023-11-18T07:11:06;94111.22;;;5.15;74.57
11971;BME280;6045;42.682;23.294;2023-11-18T07:13:33;94108.72;;;5.26;78.63
11971;BME280;6045;42.682;23.294;2023-11-18T07:16:01;94115.25;;;5.24;77.50
11971;BME280;6045;42.682;23.294;2023-11-18T07:18:30;94116.09;;;5.24;76.46
11971;BME280;6045;42.682;23.294;2023-11-18T07:20:59;94107.19;;;5.06;74.33
11971;BME280;6045;42.682;23.294;2023-11-18T07:23:25;94110.41;;;5.14;78.79
11971;BME280;6045;42.682;23.294;2023-11-18T07:25:52;94111.88;;;5.54;86.94
11971;BME280;6045;42.682;23.294;2023-11-18T07:28:20;94119.13;;;6.35;94.48
11971;BME280;6045;42.682;23.294;2023-11-18T07:30:47;94118.09;;;6.11;81.05
11971;BME280;6045;42.682;23.294;2023-11-18T07:33:15;94127.34;;;5.58;73.91
11971;BME280;6045;42.682;23.294;2023-11-18T07:35:42;94136.75;;;4.96;73.26
11971;BME280;6045;42.682;23.294;2023-11-18T07:38:09;94159.16;;;4.94;75.00
11971;BME280;6045;42.682;23.294;2023-11-18T07:40:36;94148.22;;;4.64;74.37
11971;BME280;6045;42.682;23.294;2023-11-18T07:43:07;94143.94;;;4.50;75.62
11971;BME280;6045;42.682;23.294;2023-11-18T07:45:35;94152.81;;;4.95;81.35
11971;BME280;6045;42.682;23.294;2023-11-18T07:48:03;94153.25;;;4.92;77.70
11971;BME280;6045;42.682;23.294;2023-11-18T07:50:33;94157.56;;;4.53;74.75
11971;BME280;6045;42.682;23.294;2023-11-18T07:53:00;94143.94;;;4.43;77.22
11971;BME280;6045;42.682;23.294;2023-11-18T07:55:27;94136.63;;;4.52;75.83
11971;BME280;6045;42.682;23.294;2023-11-18T07:57:54;94135.78;;;4.51;78.16
11971;BME280;6045;42.682;23.294;2023-11-18T08:00:21;94129.88;;;4.56;77.69
11971;BME280;6045;42.682;23.294;2023-11-18T08:02:49;94133.56;;;4.42;75.97
11971;BME280;6045;42.682;23.294;2023-11-18T08:05:17;94132.13;;;4.46;76.09
11971;BME280;6045;42.682;23.294;2023-11-18T08:07:46;94135.59;;;4.33;75.99
11971;BME280;6045;42.682;23.294;2023-11-18T08:10:13;94137.44;;;4.26;75.67
11971;BME280;6045;42.682;23.294;2023-11-18T08:12:44;94143.13;;;4.23;76.25
11971;BME280;6045;42.682;23.294;2023-11-18T08:15:12;94136.00;;;4.24;76.26
11971;BME280;6045;42.682;23.294;2023-11-18T08:17:39;94147.41;;;4.31;76.01
11971;BME280;6045;42.682;23.294;2023-11-18T08:20:07;94133.38;;;4.24;75.82
11971;BME280;6045;42.682;23.294;2023-11-18T08:22:39;94152.69;;;4.31;77.58
11971;BME280;6045;42.682;23.294;2023-11-18T08:25:09;94164.50;;;4.35;76.50
11971;BME280;6045;42.682;23.294;2023-11-18T08:27:36;94159.00;;;4.23;74.84
11971;BME280;6045;42.682;23.294;2023-11-18T08:30:03;94165.94;;;4.31;78.54
11971;BME280;6045;42.682;23.294;2023-11-18T08:32:36;94150.66;;;4.33;76.37
11971;BME280;6045;42.682;23.294;2023-11-18T08:35:04;94153.69;;;4.62;78.55
11971;BME280;6045;42.682;23.294;2023-11-18T08:37:31;94168.34;;;4.58;76.72
11971;BME280;6045;42.682;23.294;2023-11-18T08:40:00;94169.59;;;4.43;75.07
11971;BME280;6045;42.682;23.294;2023-11-18T08:42:29;94172.41;;;4.48;76.96
11971;BME280;6045;42.682;23.294;2023-11-18T08:44:57;94183.00;;;4.35;75.95
11971;BME280;6045;42.682;23.294;2023-11-18T08:47:24;94163.69;;;4.28;76.16
11971;BME280;6045;42.682;23.294;2023-11-18T08:49:51;94169.16;;;4.20;77.39
11971;BME280;6045;42.682;23.294;2023-11-18T08:52:18;94174.88;;;4.30;76.66
11971;BME280;6045;42.682;23.294;2023-11-18T08:54:45;94174.25;;;4.28;75.13
11971;BME280;6045;42.682;23.294;2023-11-18T08:57:26;94200.88;;;4.20;74.93
11971;BME280;6045;42.682;23.294;2023-11-18T08:59:55;94194.97;;;4.11;75.81
11971;BME280;6045;42.682;23.294;2023-11-18T09:02:24;94184.81;;;4.14;77.27
11971;BME280;6045;42.682;23.294;2023-11-18T09:04:51;94191.13;;;4.27;77.71
11971;BME280;6045;42.682;23.294;2023-11-18T09:07:20;94185.84;;;4.27;76.25
11971;BME280;6045;42.682;23.294;2023-11-18T09:09:47;94180.53;;;4.13;75.98
11971;BME280;6045;42.682;23.294;2023-11-18T09:12:18;94173.81;;;4.18;77.75
11971;BME280;6045;42.682;23.294;2023-11-18T09:14:45;94172.78;;;4.05;76.87
11971;BME280;6045;42.682;23.294;2023-11-18T09:17:14;94179.50;;;4.14;76.95
11971;BME280;6045;42.682;23.294;2023-11-18T09:19:41;94186.22;;;4.10;77.46
11971;BME280;6045;42.682;23.294;2023-11-18T09:22:08;94177.28;;;4.05;76.00
11971;BME280;6045;42.682;23.294;2023-11-18T09:24:38;94174.03;;;4.16;78.50
11971;BME280;6045;42.682;23.294;2023-11-18T09:27:05;94164.28;;;4.23;76.20
11971;BME280;6045;42.682;23.294;2023-11-18T09:29:34;94170.38;;;4.30;76.99
11971;BME280;6045;42.682;23.294;2023-11-18T09:32:01;94165.50;;;4.47;77.04
11971;BME280;6045;42.682;23.294;2023-11-18T09:34:32;94153.91;;;4.41;75.58
11971;BME280;6045;42.682;23.294;2023-11-18T09:36:59;94170.41;;;4.56;78.41
11971;BME280;6045;42.682;23.294;2023-11-18T09:39:26;94162.47;;;4.50;76.51
11971;BME280;6045;42.682;23.294;2023-11-18T09:42:05;94163.69;;;4.47;76.37
11971;BME280;6045;42.682;23.294;2023-11-18T09:44:38;94160.41;;;4.45;75.59
11971;BME280;6045;42.682;23.294;2023-11-18T09:47:08;94159.19;;;4.48;75.84
11971;BME280;6045;42.682;23.294;2023-11-18T09:49:42;94159.41;;;4.46;75.74
11971;BME280;6045;42.682;23.294;2023-11-18T09:52:15;94162.47;;;4.50;76.54
11971;BME280;6045;42.682;23.294;2023-11-18T09:54:53;94172.63;;;4.33;73.94
11971;BME280;6045;42.682;23.294;2023-11-18T09:57:29;94157.97;;;4.24;75.09
11971;BME280;6045;42.682;23.294;2023-11-18T10:00:01;94174.66;;;4.25;74.76
11971;BME280;6045;42.682;23.294;2023-11-18T10:02:39;94160.00;;;4.29;75.04
11971;BME280;6045;42.682;23.294;2023-11-18T10:05:09;94149.22;;;4.37;75.62
11971;BME280;6045;42.682;23.294;2023-11-18T10:07:39;94145.56;;;4.44;77.37
11971;BME280;6045;42.682;23.294;2023-11-18T10:10:07;94147.59;;;4.49;74.07
11971;BME280;6045;42.682;23.294;2023-11-18T10:12:40;94134.75;;;4.52;74.36
11971;BME280;6045;42.682;23.294;2023-11-18T10:15:11;94140.69;;;4.35;73.44
11971;BME280;6045;42.682;23.294;2023-11-18T10:17:42;94150.44;;;4.41;74.59
11971;BME280;6045;42.682;23.294;2023-11-18T10:20:21;94150.44;;;4.28;73.92
11971;BME280;6045;42.682;23.294;2023-11-18T10:23:06;94138.66;;;4.24;74.38
11971;BME280;6045;42.682;23.294;2023-11-18T10:25:35;94152.88;;;4.16;74.09
11971;BME280;6045;42.682;23.294;2023-11-18T10:28:06;94154.91;;;4.21;74.44
11971;BME280;6045;42.682;23.294;2023-11-18T10:30:42;94163.88;;;4.33;75.24
11971;BME280;6045;42.682;23.294;2023-11-18T10:33:14;94186.06;;;4.25;72.73
11971;BME280;6045;42.682;23.294;2023-11-18T10:35:50;94156.56;;;4.35;75.19
11971;BME280;6045;42.682;23.294;2023-11-18T10:38:18;94164.72;;;4.33;73.17
11971;BME280;6045;42.682;23.294;2023-11-18T10:40:45;94159.81;;;4.24;72.85
11971;BME280;6045;42.682;23.294;2023-11-18T10:43:12;94173.22;;;4.15;73.14
11971;BME280;6045;42.682;23.294;2023-11-18T10:45:42;94162.63;;;4.29;73.67
11971;BME280;6045;42.682;23.294;2023-11-18T10:48:12;94170.38;;;4.17;73.75
11971;BME280;6045;42.682;23.294;2023-11-18T10:50:42;94161.22;;;4.13;73.42
11971;BME280;6045;42.682;23.294;2023-11-18T10:53:13;94144.53;;;4.12;74.83
11971;BME280;6045;42.682;23.294;2023-11-18T10:55:41;94177.69;;;4.08;73.91
11971;BME280;6045;42.682;23.294;2023-11-18T10:58:09;94170.97;;;3.99;73.83
11971;BME280;6045;42.682;23.294;2023-11-18T11:00:46;94158.16;;;4.03;75.22
11971;BME280;6045;42.682;23.294;2023-11-18T11:03:14;94163.06;;;4.32;76.45
11971;BME280;6045;42.682;23.294;2023-11-18T11:05:41;94162.47;;;4.30;73.40
11971;BME280;6045;42.682;23.294;2023-11-18T11:08:11;94166.31;;;4.28;74.02
11971;BME280;6045;42.682;23.294;2023-11-18T11:10:41;94152.28;;;4.34;72.66
11971;BME280;6045;42.682;23.294;2023-11-18T11:13:09;94156.94;;;4.32;72.80
11971;BME280;6045;42.682;23.294;2023-11-18T11:15:40;94166.31;;;4.34;73.02
11971;BME280;6045;42.682;23.294;2023-11-18T11:18:11;94174.88;;;4.75;81.23
11971;BME280;6045;42.682;23.294;2023-11-18T11:20:46;94158.53;;;4.98;75.91
11971;BME280;6045;42.682;23.294;2023-11-18T11:23:18;94165.28;;;4.81;72.30
11971;BME280;6045;42.682;23.294;2023-11-18T11:25:59;94162.44;;;4.63;73.88
11971;BME280;6045;42.682;23.294;2023-11-18T11:28:34;94156.94;;;4.58;74.89
11971;BME280;6045;42.682;23.294;2023-11-18T11:31:12;94146.78;;;4.42;72.97
11971;BME280;6045;42.682;23.294;2023-11-18T11:33:43;94171.44;;;4.36;74.02
11971;BME280;6045;42.682;23.294;2023-11-18T11:36:18;94158.19;;;4.23;74.34
11971;BME280;6045;42.682;23.294;2023-11-18T11:38:50;94143.53;;;4.13;73.29
11971;BME280;6045;42.682;23.294;2023-11-18T11:41:23;94145.56;;;4.05;73.38
11971;BME280;6045;42.682;23.294;2023-11-18T11:43:52;94151.03;;;4.10;73.92
11971;BME280;6045;42.682;23.294;2023-11-18T11:46:25;94163.47;;;4.09;73.63
11971;BME280;6045;42.682;23.294;2023-11-18T11:48:59;94143.75;;;4.45;80.91
11971;BME280;6045;42.682;23.294;2023-11-18T11:51:30;94142.25;;;4.88;75.09
11971;BME280;6045;42.682;23.294;2023-11-18T11:54:01;94134.56;;;4.67;73.25
11971;BME280;6045;42.682;23.294;2023-11-18T11:56:39;94142.91;;;4.70;73.43
11971;BME280;6045;42.682;23.294;2023-11-18T11:59:06;94143.13;;;4.56;72.46
11971;BME280;6045;42.682;23.294;2023-11-18T12:01:37;94139.25;;;4.32;73.68
11971;BME280;6045;42.682;23.294;2023-11-18T12:04:04;94148.00;;;4.33;73.91
11971;BME280;6045;42.682;23.294;2023-11-18T12:06:40;94144.94;;;4.23;72.90
11971;BME280;6045;42.682;23.294;2023-11-18T12:09:09;94142.91;;;4.31;74.01
11971;BME280;6045;42.682;23.294;2023-11-18T12:11:36;94140.09;;;4.26;73.69
11971;BME280;6045;42.682;23.294;2023-11-18T12:14:07;94142.50;;;4.28;73.52
11971;BME280;6045;42.682;23.294;2023-11-18T12:17:00;94144.34;;;4.21;73.55
11971;BME280;6045;42.682;23.294;2023-11-18T12:19:33;94135.19;;;4.30;74.19
11971;BME280;6045;42.682;23.294;2023-11-18T12:22:11;94139.25;;;4.26;74.26
11971;BME280;6045;42.682;23.294;2023-11-18T12:24:44;94152.69;;;4.31;73.75
11971;BME280;6045;42.682;23.294;2023-11-18T12:27:12;94146.59;;;4.37;73.93
11971;BME280;6045;42.682;23.294;2023-11-18T12:29:43;94146.78;;;4.42;73.76
11971;BME280;6045;42.682;23.294;2023-11-18T12:32:10;94145.78;;;4.43;73.16
11971;BME280;6045;42.682;23.294;2023-11-18T12:34:52;94138.25;;;4.40;72.92
11971;BME280;6045;42.682;23.294;2023-11-18T12:37:56;94131.13;;;4.40;73.65
11971;BME280;6045;42.682;23.294;2023-11-18T12:40:53;94143.31;;;4.41;73.58
11971;BME280;6045;42.682;23.294;2023-11-18T12:43:41;94150.25;;;4.49;74.07
11971;BME280;6045;42.682;23.294;2023-11-18T12:46:41;94145.16;;;4.34;73.36
11971;BME280;6045;42.682;23.294;2023-11-18T12:49:15;94152.66;;;4.24;73.84
11971;BME280;6045;42.682;23.294;2023-11-18T12:51:47;94148.00;;;4.39;75.12
11971;BME280;6045;42.682;23.294;2023-11-18T12:54:15;94160.63;;;4.37;74.78
11971;BME280;6045;42.682;23.294;2023-11-18T12:56:44;94173.22;;;4.29;73.96
11971;BME280;6045;42.682;23.294;2023-11-18T12:59:14;94175.25;;;4.27;74.38
11971;BME280;6045;42.682;23.294;2023-11-18T13:01:45;94156.53;;;4.22;74.79
11971;BME280;6045;42.682;23.294;2023-11-18T13:04:17;94163.06;;;4.26;74.78
11971;BME280;6045;42.682;23.294;2023-11-18T13:06:46;94153.69;;;4.30;74.99
11971;BME280;6045;42.682;23.294;2023-11-18T13:09:14;94150.44;;;4.34;74.58
11971;BME280;6045;42.682;23.294;2023-11-18T13:11:52;94159.19;;;4.35;74.77
11971;BME280;6045;42.682;23.294;2023-11-18T13:14:22;94180.56;;;4.40;74.09
11971;BME280;6045;42.682;23.294;2023-11-18T13:16:52;94178.94;;;4.26;73.84
11971;BME280;6045;42.682;23.294;2023-11-18T13:19:26;94196.03;;;4.23;74.38
11971;BME280;6045;42.682;23.294;2023-11-18T13:21:56;94188.72;;;4.58;81.88
11971;BME280;6045;42.682;23.294;2023-11-18T13:24:24;94188.72;;;4.58;75.55